sensor_id;sensor_type;location;lat;lon;timestamp;temperature;humidity
5150;DHT22;2593;52.466;13.436;2022-09-09T00:10:08;15.20;99.90
5150;DHT22;2593;52.466;13.436;2022-09-09T00:15:37;15.10;99.90
5150;DHT22;2593;52.466;13.436;2022-09-09T00:18:13;15.10;99.90
5150;DHT22;2593;52.466;13.436;2022-09-09T00:21:01;15.10;99.90
5150;DHT22;2593;52.466;13.436;2022-09-09T00:23:30;15.10;99.90
5150;DHT22;2593;52.466;13.436;2022-09-09T00:26:13;15.10;99.90
5150;DHT22;2593;52.466;13.436;2022-09-09T00:31:20;15.00;99.90
5150;DHT22;2593;52.466;13.436;2022-09-09T00:33:48;15.10;99.90
5150;DHT22;2593;52.466;13.436;2022-09-09T00:36:18;15.10;99.90
5150;DHT22;2593;52.466;13.436;2022-09-09T00:39:02;15.00;99.90
5150;DHT22;2593;52.466;13.436;2022-09-09T00:55:05;15.00;99.90
5150;DHT22;2593;52.466;13.436;2022-09-09T00:57:34;14.90;99.90
5150;DHT22;2593;52.466;13.436;2022-09-09T01:03:08;14.80;99.90
5150;DHT22;2593;52.466;13.436;2022-09-09T01:05:59;14.80;99.90
5150;DHT22;2593;52.466;13.436;2022-09-09T01:10:58;14.70;99.90
5150;DHT22;2593;52.466;13.436;2022-09-09T01:13:27;14.70;99.90
5150;DHT22;2593;52.466;13.436;2022-09-09T01:15:58;14.70;99.90
5150;DHT22;2593;52.466;13.436;2022-09-09T01:18:27;14.70;99.90
5150;DHT22;2593;52.466;13.436;2022-09-09T01:26:43;14.70;99.90
5150;DHT22;2593;52.466;13.436;2022-09-09T01:29:11;14.70;99.90
5150;DHT22;2593;52.466;13.436;2022-09-09T01:31:57;14.70;99.90
5150;DHT22;2593;52.466;13.436;2022-09-09T01:34:25;14.70;99.90
5150;DHT22;2593;52.466;13.436;2022-09-09T01:37:02;14.60;99.90
5150;DHT22;2593;52.466;13.436;2022-09-09T01:39:30;14.60;99.90
5150;DHT22;2593;52.466;13.436;2022-09-09T01:41:56;14.60;99.90
5150;DHT22;2593;52.466;13.436;2022-09-09T01:44:22;14.60;99.90
5150;DHT22;2593;52.466;13.436;2022-09-09T01:46:48;14.50;99.90
5150;DHT22;2593;52.466;13.436;2022-09-09T01:49:14;14.50;99.90
5150;DHT22;2593;52.466;13.436;2022-09-09T01:51:42;14.60;99.90
5150;DHT22;2593;52.466;13.436;2022-09-09T01:54:08;14.50;99.90
5150;DHT22;2593;52.466;13.436;2022-09-09T02:00:09;14.50;99.90
5150;DHT22;2593;52.466;13.436;2022-09-09T02:02:55;14.50;99.90
5150;DHT22;2593;52.466;13.436;2022-09-09T02:08:20;14.40;99.90
5150;DHT22;2593;52.466;13.436;2022-09-09T02:13:19;14.40;99.90
5150;DHT22;2593;52.466;13.436;2022-09-09T02:16:11;14.40;99.90
5150;DHT22;2593;52.466;13.436;2022-09-09T02:21:17;14.40;99.90
5150;DHT22;2593;52.466;13.436;2022-09-09T02:23:43;14.30;99.90
5150;DHT22;2593;52.466;13.436;2022-09-09T02:26:12;14.30;99.90
5150;DHT22;2593;52.466;13.436;2022-09-09T02:28:39;14.30;99.90
5150;DHT22;2593;52.466;13.436;2022-09-09T02:31:06;14.30;99.90
5150;DHT22;2593;52.466;13.436;2022-09-09T02:33:37;14.30;99.90
5150;DHT22;2593;52.466;13.436;2022-09-09T02:36:04;14.30;99.90
5150;DHT22;2593;52.466;13.436;2022-09-09T02:38:35;14.30;99.90
5150;DHT22;2593;52.466;13.436;2022-09-09T02:41:01;14.20;99.90
5150;DHT22;2593;52.466;13.436;2022-09-09T02:43:32;14.20;99.90
5150;DHT22;2593;52.466;13.436;2022-09-09T02:46:20;14.30;99.90
5150;DHT22;2593;52.466;13.436;2022-09-09T02:48:58;14.30;99.90
5150;DHT22;2593;52.466;13.436;2022-09-09T02:51:49;14.30;99.90
5150;DHT22;2593;52.466;13.436;2022-09-09T02:54:26;14.30;99.90
5150;DHT22;2593;52.466;13.436;2022-09-09T02:56:54;14.30;99.90
5150;DHT22;2593;52.466;13.436;2022-09-09T02:59:21;14.20;99.90
5150;DHT22;2593;52.466;13.436;2022-09-09T03:01:47;14.20;99.90
5150;DHT22;2593;52.466;13.436;2022-09-09T03:04:13;14.20;99.90
5150;DHT22;2593;52.466;13.436;2022-09-09T03:06:39;14.20;99.90
5150;DHT22;2593;52.466;13.436;2022-09-09T03:09:05;14.20;99.90
5150;DHT22;2593;52.466;13.436;2022-09-09T03:11:31;14.20;99.90
5150;DHT22;2593;52.466;13.436;2022-09-09T03:13:56;14.20;99.90
5150;DHT22;2593;52.466;13.436;2022-09-09T03:16:23;14.20;99.90
5150;DHT22;2593;52.466;13.436;2022-09-09T03:18:48;14.20;99.90
5150;DHT22;2593;52.466;13.436;2022-09-09T03:21:14;14.20;99.90
5150;DHT22;2593;52.466;13.436;2022-09-09T03:23:40;14.20;99.90
5150;DHT22;2593;52.466;13.436;2022-09-09T03:26:06;14.10;99.90
5150;DHT22;2593;52.466;13.436;2022-09-09T03:28:32;14.10;99.90
5150;DHT22;2593;52.466;13.436;2022-09-09T03:31:01;14.10;99.90
5150;DHT22;2593;52.466;13.436;2022-09-09T03:33:27;14.10;99.90
5150;DHT22;2593;52.466;13.436;2022-09-09T03:35:53;14.10;99.90
5150;DHT22;2593;52.466;13.436;2022-09-09T03:38:24;14.10;99.90
5150;DHT22;2593;52.466;13.436;2022-09-09T03:40:55;14.00;99.90
5150;DHT22;2593;52.466;13.436;2022-09-09T03:43:25;14.00;99.90
5150;DHT22;2593;52.466;13.436;2022-09-09T03:45:51;14.00;99.90
5150;DHT22;2593;52.466;13.436;2022-09-09T03:48:18;14.00;99.90
5150;DHT22;2593;52.466;13.436;2022-09-09T03:50:48;14.00;99.90
5150;DHT22;2593;52.466;13.436;2022-09-09T03:53:15;14.00;99.90
5150;DHT22;2593;52.466;13.436;2022-09-09T03:55:45;14.00;99.90
5150;DHT22;2593;52.466;13.436;2022-09-09T03:58:12;14.00;99.90
5150;DHT22;2593;52.466;13.436;2022-09-09T04:00:38;14.00;99.90
5150;DHT22;2593;52.466;13.436;2022-09-09T04:03:05;14.00;99.90
5150;DHT22;2593;52.466;13.436;2022-09-09T04:05:31;14.00;99.90
5150;DHT22;2593;52.466;13.436;2022-09-09T04:07:59;14.00;99.90
5150;DHT22;2593;52.466;13.436;2022-09-09T04:10:24;14.00;99.90
5150;DHT22;2593;52.466;13.436;2022-09-09T04:12:50;14.00;99.90
5150;DHT22;2593;52.466;13.436;2022-09-09T04:15:15;14.00;99.90
5150;DHT22;2593;52.466;13.436;2022-09-09T04:17:41;14.00;99.90
5150;DHT22;2593;52.466;13.436;2022-09-09T04:20:07;13.90;99.90
5150;DHT22;2593;52.466;13.436;2022-09-09T04:22:36;13.90;99.90
5150;DHT22;2593;52.466;13.436;2022-09-09T04:25:05;13.90;99.90
5150;DHT22;2593;52.466;13.436;2022-09-09T04:27:31;13.90;99.90
5150;DHT22;2593;52.466;13.436;2022-09-09T04:29:57;13.90;99.90
5150;DHT22;2593;52.466;13.436;2022-09-09T04:32:22;14.00;99.90
5150;DHT22;2593;52.466;13.436;2022-09-09T04:34:48;13.90;99.90
5150;DHT22;2593;52.466;13.436;2022-09-09T04:37:14;14.00;99.90
5150;DHT22;2593;52.466;13.436;2022-09-09T04:39:39;13.90;99.90
5150;DHT22;2593;52.466;13.436;2022-09-09T04:42:05;13.90;99.90
5150;DHT22;2593;52.466;13.436;2022-09-09T04:44:31;13.90;99.90
5150;DHT22;2593;52.466;13.436;2022-09-09T04:46:56;13.90;99.90
5150;DHT22;2593;52.466;13.436;2022-09-09T04:49:22;14.00;99.90
5150;DHT22;2593;52.466;13.436;2022-09-09T04:51:51;14.00;99.90
5150;DHT22;2593;52.466;13.436;2022-09-09T04:54:17;14.00;99.90
5150;DHT22;2593;52.466;13.436;2022-09-09T04:56:42;14.00;99.90
5150;DHT22;2593;52.466;13.436;2022-09-09T04:59:08;14.00;99.90
5150;DHT22;2593;52.466;13.436;2022-09-09T05:01:35;14.00;99.90
5150;DHT22;2593;52.466;13.436;2022-09-09T05:04:01;14.10;99.90
5150;DHT22;2593;52.466;13.436;2022-09-09T05:06:28;14.10;99.90
5150;DHT22;2593;52.466;13.436;2022-09-09T05:08:54;14.10;99.90
5150;DHT22;2593;52.466;13.436;2022-09-09T05:11:20;14.20;99.90
5150;DHT22;2593;52.466;13.436;2022-09-09T05:13:49;14.30;99.90
5150;DHT22;2593;52.466;13.436;2022-09-09T05:16:16;14.30;99.90
5150;DHT22;2593;52.466;13.436;2022-09-09T05:18:42;14.30;99.90
5150;DHT22;2593;52.466;13.436;2022-09-09T05:21:09;14.30;99.90
5150;DHT22;2593;52.466;13.436;2022-09-09T05:23:35;14.40;99.90
5150;DHT22;2593;52.466;13.436;2022-09-09T05:26:01;14.40;99.90
5150;DHT22;2593;52.466;13.436;2022-09-09T05:28:27;14.50;99.90
5150;DHT22;2593;52.466;13.436;2022-09-09T05:31:08;14.50;99.90
5150;DHT22;2593;52.466;13.436;2022-09-09T05:33:35;14.50;99.90
5150;DHT22;2593;52.466;13.436;2022-09-09T05:36:03;14.60;99.90
5150;DHT22;2593;52.466;13.436;2022-09-09T05:38:31;14.60;99.90
5150;DHT22;2593;52.466;13.436;2022-09-09T05:40:57;14.60;99.90
5150;DHT22;2593;52.466;13.436;2022-09-09T05:43:23;14.70;99.90
5150;DHT22;2593;52.466;13.436;2022-09-09T05:48:32;14.70;99.90
5150;DHT22;2593;52.466;13.436;2022-09-09T05:50:58;14.80;99.90
5150;DHT22;2593;52.466;13.436;2022-09-09T05:53:25;14.80;99.90
5150;DHT22;2593;52.466;13.436;2022-09-09T05:55:57;14.90;99.90
5150;DHT22;2593;52.466;13.436;2022-09-09T05:58:23;14.80;99.90
5150;DHT22;2593;52.466;13.436;2022-09-09T06:00:49;14.90;99.90
5150;DHT22;2593;52.466;13.436;2022-09-09T06:03:15;14.90;99.90
5150;DHT22;2593;52.466;13.436;2022-09-09T06:05:42;15.00;99.90
5150;DHT22;2593;52.466;13.436;2022-09-09T06:08:07;15.00;99.90
5150;DHT22;2593;52.466;13.436;2022-09-09T06:10:33;15.10;99.90
5150;DHT22;2593;52.466;13.436;2022-09-09T06:12:59;15.10;99.90
5150;DHT22;2593;52.466;13.436;2022-09-09T06:15:25;15.10;99.90
5150;DHT22;2593;52.466;13.436;2022-09-09T06:17:56;15.20;99.90
5150;DHT22;2593;52.466;13.436;2022-09-09T06:20:22;15.20;99.90
5150;DHT22;2593;52.466;13.436;2022-09-09T06:22:47;15.20;99.90
5150;DHT22;2593;52.466;13.436;2022-09-09T06:25:14;15.30;99.90
5150;DHT22;2593;52.466;13.436;2022-09-09T06:27:40;15.40;99.90
5150;DHT22;2593;52.466;13.436;2022-09-09T06:30:07;15.40;99.90
5150;DHT22;2593;52.466;13.436;2022-09-09T06:32:33;15.50;99.90
5150;DHT22;2593;52.466;13.436;2022-09-09T06:35:00;15.70;99.90
5150;DHT22;2593;52.466;13.436;2022-09-09T06:37:26;15.90;99.90
5150;DHT22;2593;52.466;13.436;2022-09-09T06:39:52;16.00;99.90
5150;DHT22;2593;52.466;13.436;2022-09-09T06:42:20;16.20;99.90
5150;DHT22;2593;52.466;13.436;2022-09-09T06:44:46;16.30;99.90
5150;DHT22;2593;52.466;13.436;2022-09-09T06:47:11;16.50;99.90
5150;DHT22;2593;52.466;13.436;2022-09-09T06:49:37;16.70;99.90
5150;DHT22;2593;52.466;13.436;2022-09-09T06:52:03;17.00;99.90
5150;DHT22;2593;52.466;13.436;2022-09-09T06:54:28;17.20;99.90
5150;DHT22;2593;52.466;13.436;2022-09-09T06:56:54;17.40;99.90
5150;DHT22;2593;52.466;13.436;2022-09-09T06:59:20;17.60;99.90
5150;DHT22;2593;52.466;13.436;2022-09-09T07:01:45;17.80;99.90
5150;DHT22;2593;52.466;13.436;2022-09-09T07:04:12;18.00;99.90
5150;DHT22;2593;52.466;13.436;2022-09-09T07:06:42;18.20;99.90
5150;DHT22;2593;52.466;13.436;2022-09-09T07:09:13;18.40;99.90
5150;DHT22;2593;52.466;13.436;2022-09-09T07:11:50;18.90;99.90
5150;DHT22;2593;52.466;13.436;2022-09-09T07:14:18;19.10;99.90
5150;DHT22;2593;52.466;13.436;2022-09-09T07:16:44;19.40;99.90
5150;DHT22;2593;52.466;13.436;2022-09-09T07:19:11;19.80;99.90
5150;DHT22;2593;52.466;13.436;2022-09-09T07:21:38;20.10;99.90
5150;DHT22;2593;52.466;13.436;2022-09-09T07:24:05;20.50;99.90
5150;DHT22;2593;52.466;13.436;2022-09-09T07:26:33;20.90;99.90
5150;DHT22;2593;52.466;13.436;2022-09-09T07:28:58;20.90;99.90
5150;DHT22;2593;52.466;13.436;2022-09-09T07:31:29;20.80;99.90
5150;DHT22;2593;52.466;13.436;2022-09-09T07:33:59;20.50;99.90
5150;DHT22;2593;52.466;13.436;2022-09-09T07:36:27;20.50;99.90
5150;DHT22;2593;52.466;13.436;2022-09-09T07:39:08;20.80;99.90
5150;DHT22;2593;52.466;13.436;2022-09-09T07:41:42;21.10;99.90
5150;DHT22;2593;52.466;13.436;2022-09-09T07:44:11;21.60;76.10
5150;DHT22;2593;52.466;13.436;2022-09-09T07:46:38;22.30;16.50
5150;DHT22;2593;52.466;13.436;2022-09-09T07:49:05;23.20;1.60
5150;DHT22;2593;52.466;13.436;2022-09-09T07:51:39;24.20;1.00
5150;DHT22;2593;52.466;13.436;2022-09-09T07:54:08;24.90;1.00
5150;DHT22;2593;52.466;13.436;2022-09-09T07:56:38;25.30;1.00
5150;DHT22;2593;52.466;13.436;2022-09-09T07:59:04;25.80;1.00
5150;DHT22;2593;52.466;13.436;2022-09-09T08:01:36;27.30;1.00
5150;DHT22;2593;52.466;13.436;2022-09-09T08:04:09;28.70;1.00
5150;DHT22;2593;52.466;13.436;2022-09-09T08:06:38;30.30;1.00
5150;DHT22;2593;52.466;13.436;2022-09-09T08:09:05;30.90;1.00
5150;DHT22;2593;52.466;13.436;2022-09-09T08:11:31;31.60;1.00
5150;DHT22;2593;52.466;13.436;2022-09-09T08:13:58;31.90;1.00
5150;DHT22;2593;52.466;13.436;2022-09-09T08:16:30;30.90;1.00
5150;DHT22;2593;52.466;13.436;2022-09-09T08:18:56;28.40;1.00
5150;DHT22;2593;52.466;13.436;2022-09-09T08:21:25;26.90;1.00
5150;DHT22;2593;52.466;13.436;2022-09-09T08:23:53;25.70;1.00
5150;DHT22;2593;52.466;13.436;2022-09-09T08:26:39;25.00;1.00
5150;DHT22;2593;52.466;13.436;2022-09-09T08:29:06;24.50;1.00
5150;DHT22;2593;52.466;13.436;2022-09-09T08:31:37;23.90;1.00
5150;DHT22;2593;52.466;13.436;2022-09-09T08:34:04;23.60;1.00
5150;DHT22;2593;52.466;13.436;2022-09-09T08:36:32;23.10;1.00
5150;DHT22;2593;52.466;13.436;2022-09-09T08:39:02;22.50;1.00
5150;DHT22;2593;52.466;13.436;2022-09-09T08:49:53;21.40;1.00
5150;DHT22;2593;52.466;13.436;2022-09-09T08:52:31;21.30;23.50
5150;DHT22;2593;52.466;13.436;2022-09-09T08:55:45;21.00;56.80
5150;DHT22;2593;52.466;13.436;2022-09-09T08:57:56;20.80;99.90
5150;DHT22;2593;52.466;13.436;2022-09-09T09:00:22;20.90;99.90
5150;DHT22;2593;52.466;13.436;2022-09-09T09:05:27;21.90;6.00
5150;DHT22;2593;52.466;13.436;2022-09-09T09:10:47;23.30;1.00
5150;DHT22;2593;52.466;13.436;2022-09-09T09:13:19;24.30;1.00
5150;DHT22;2593;52.466;13.436;2022-09-09T09:16:00;26.00;1.00
5150;DHT22;2593;52.466;13.436;2022-09-09T09:18:27;27.10;1.00
5150;DHT22;2593;52.466;13.436;2022-09-09T09:21:04;27.40;1.00
5150;DHT22;2593;52.466;13.436;2022-09-09T09:23:53;27.70;1.00
5150;DHT22;2593;52.466;13.436;2022-09-09T09:26:22;28.50;1.00
5150;DHT22;2593;52.466;13.436;2022-09-09T09:28:49;29.90;1.00
5150;DHT22;2593;52.466;13.436;2022-09-09T09:31:15;31.40;1.00
5150;DHT22;2593;52.466;13.436;2022-09-09T09:33:46;31.90;1.00
5150;DHT22;2593;52.466;13.436;2022-09-09T09:36:13;32.90;1.00
5150;DHT22;2593;52.466;13.436;2022-09-09T09:38:57;33.60;1.00
5150;DHT22;2593;52.466;13.436;2022-09-09T09:44:04;34.40;1.00
5150;DHT22;2593;52.466;13.436;2022-09-09T09:46:31;35.60;1.00
5150;DHT22;2593;52.466;13.436;2022-09-09T09:51:24;35.80;1.00
5150;DHT22;2593;52.466;13.436;2022-09-09T09:53:50;35.50;1.00
5150;DHT22;2593;52.466;13.436;2022-09-09T09:56:26;35.40;1.00
5150;DHT22;2593;52.466;13.436;2022-09-09T09:58:54;35.50;1.00
5150;DHT22;2593;52.466;13.436;2022-09-09T10:01:24;35.90;1.00
5150;DHT22;2593;52.466;13.436;2022-09-09T10:03:52;37.10;1.00
5150;DHT22;2593;52.466;13.436;2022-09-09T10:06:29;37.10;1.00
5150;DHT22;2593;52.466;13.436;2022-09-09T10:08:54;35.10;1.00
5150;DHT22;2593;52.466;13.436;2022-09-09T10:14:24;31.50;1.00
5150;DHT22;2593;52.466;13.436;2022-09-09T10:22:35;31.10;1.00
5150;DHT22;2593;52.466;13.436;2022-09-09T10:30:09;31.80;1.00
5150;DHT22;2593;52.466;13.436;2022-09-09T10:32:42;31.40;1.00
5150;DHT22;2593;52.466;13.436;2022-09-09T10:35:29;30.50;1.00
5150;DHT22;2593;52.466;13.436;2022-09-09T10:51:26;25.40;1.00
5150;DHT22;2593;52.466;13.436;2022-09-09T10:56:32;25.20;1.00
5150;DHT22;2593;52.466;13.436;2022-09-09T10:59:07;25.30;1.00
5150;DHT22;2593;52.466;13.436;2022-09-09T11:01:39;25.40;1.00
5150;DHT22;2593;52.466;13.436;2022-09-09T11:04:25;25.30;1.00
5150;DHT22;2593;52.466;13.436;2022-09-09T11:06:54;25.10;1.00
5150;DHT22;2593;52.466;13.436;2022-09-09T11:09:33;24.70;1.00
5150;DHT22;2593;52.466;13.436;2022-09-09T11:12:02;24.10;1.00
5150;DHT22;2593;52.466;13.436;2022-09-09T11:14:29;24.10;1.00
5150;DHT22;2593;52.466;13.436;2022-09-09T11:17:03;24.10;1.00
5150;DHT22;2593;52.466;13.436;2022-09-09T11:19:34;23.90;1.00
5150;DHT22;2593;52.466;13.436;2022-09-09T11:25:18;23.60;1.00
5150;DHT22;2593;52.466;13.436;2022-09-09T11:30:31;23.70;1.00
5150;DHT22;2593;52.466;13.436;2022-09-09T11:41:14;23.60;1.00
5150;DHT22;2593;52.466;13.436;2022-09-09T11:43:42;23.50;1.00
5150;DHT22;2593;52.466;13.436;2022-09-09T11:46:08;23.60;1.00
5150;DHT22;2593;52.466;13.436;2022-09-09T11:48:40;23.40;1.00
5150;DHT22;2593;52.466;13.436;2022-09-09T11:51:29;23.40;1.00
5150;DHT22;2593;52.466;13.436;2022-09-09T11:56:44;23.50;1.00
5150;DHT22;2593;52.466;13.436;2022-09-09T11:59:24;23.50;1.00
5150;DHT22;2593;52.466;13.436;2022-09-09T12:09:50;23.20;1.00
5150;DHT22;2593;52.466;13.436;2022-09-09T12:17:50;23.20;1.00
5150;DHT22;2593;52.466;13.436;2022-09-09T12:26:26;23.30;1.00
5150;DHT22;2593;52.466;13.436;2022-09-09T12:37:34;22.90;1.00
5150;DHT22;2593;52.466;13.436;2022-09-09T12:40:21;22.90;1.00
5150;DHT22;2593;52.466;13.436;2022-09-09T12:42:47;23.00;1.00
5150;DHT22;2593;52.466;13.436;2022-09-09T12:45:19;23.10;1.00
5150;DHT22;2593;52.466;13.436;2022-09-09T12:48:04;22.90;1.00
5150;DHT22;2593;52.466;13.436;2022-09-09T12:50:34;22.80;1.00
5150;DHT22;2593;52.466;13.436;2022-09-09T12:55:55;22.80;1.00
5150;DHT22;2593;52.466;13.436;2022-09-09T12:58:22;22.80;1.00
5150;DHT22;2593;52.466;13.436;2022-09-09T13:00:52;22.90;1.00
5150;DHT22;2593;52.466;13.436;2022-09-09T13:03:20;22.80;1.00
5150;DHT22;2593;52.466;13.436;2022-09-09T13:05:47;22.80;1.00
5150;DHT22;2593;52.466;13.436;2022-09-09T13:08:14;22.90;1.00
5150;DHT22;2593;52.466;13.436;2022-09-09T13:10:47;22.80;1.00
5150;DHT22;2593;52.466;13.436;2022-09-09T13:13:21;22.90;1.00
5150;DHT22;2593;52.466;13.436;2022-09-09T13:15:52;23.00;1.00
5150;DHT22;2593;52.466;13.436;2022-09-09T13:18:34;23.10;1.00
5150;DHT22;2593;52.466;13.436;2022-09-09T13:20:59;23.20;1.00
5150;DHT22;2593;52.466;13.436;2022-09-09T13:23:31;23.20;1.00
5150;DHT22;2593;52.466;13.436;2022-09-09T13:26:00;23.30;1.00
5150;DHT22;2593;52.466;13.436;2022-09-09T13:28:28;23.30;1.00
5150;DHT22;2593;52.466;13.436;2022-09-09T13:30:59;23.40;1.00
5150;DHT22;2593;52.466;13.436;2022-09-09T13:33:36;23.40;1.00
5150;DHT22;2593;52.466;13.436;2022-09-09T13:36:10;23.50;1.00
5150;DHT22;2593;52.466;13.436;2022-09-09T13:41:33;23.50;1.00
5150;DHT22;2593;52.466;13.436;2022-09-09T13:44:00;23.50;1.00
5150;DHT22;2593;52.466;13.436;2022-09-09T13:46:35;23.40;1.00
5150;DHT22;2593;52.466;13.436;2022-09-09T13:49:18;23.40;1.00
5150;DHT22;2593;52.466;13.436;2022-09-09T13:51:49;23.50;1.00
5150;DHT22;2593;52.466;13.436;2022-09-09T13:54:18;23.40;1.00
5150;DHT22;2593;52.466;13.436;2022-09-09T13:56:44;23.30;1.00
5150;DHT22;2593;52.466;13.436;2022-09-09T13:59:19;23.20;1.00
5150;DHT22;2593;52.466;13.436;2022-09-09T14:01:48;23.10;1.00
5150;DHT22;2593;52.466;13.436;2022-09-09T14:04:18;23.10;1.00
5150;DHT22;2593;52.466;13.436;2022-09-09T14:06:47;23.10;1.00
5150;DHT22;2593;52.466;13.436;2022-09-09T14:09:14;23.00;1.00
5150;DHT22;2593;52.466;13.436;2022-09-09T14:11:41;23.00;1.00
5150;DHT22;2593;52.466;13.436;2022-09-09T14:14:07;22.90;1.00
5150;DHT22;2593;52.466;13.436;2022-09-09T14:16:32;22.90;1.00
5150;DHT22;2593;52.466;13.436;2022-09-09T14:18:58;22.90;1.00
5150;DHT22;2593;52.466;13.436;2022-09-09T14:21:25;22.90;1.00
5150;DHT22;2593;52.466;13.436;2022-09-09T14:23:51;22.90;1.00
5150;DHT22;2593;52.466;13.436;2022-09-09T14:26:18;23.00;1.00
5150;DHT22;2593;52.466;13.436;2022-09-09T14:28:46;23.10;1.00
5150;DHT22;2593;52.466;13.436;2022-09-09T14:31:12;23.20;1.00
5150;DHT22;2593;52.466;13.436;2022-09-09T14:33:39;23.20;1.00
5150;DHT22;2593;52.466;13.436;2022-09-09T14:36:04;23.30;1.00
5150;DHT22;2593;52.466;13.436;2022-09-09T14:38:32;23.40;1.00
5150;DHT22;2593;52.466;13.436;2022-09-09T14:40:59;23.40;1.00
5150;DHT22;2593;52.466;13.436;2022-09-09T14:43:24;23.40;1.00
5150;DHT22;2593;52.466;13.436;2022-09-09T14:45:51;23.40;1.00
5150;DHT22;2593;52.466;13.436;2022-09-09T14:48:17;23.30;1.00
5150;DHT22;2593;52.466;13.436;2022-09-09T14:50:43;23.20;1.00
5150;DHT22;2593;52.466;13.436;2022-09-09T14:53:09;23.10;1.00
5150;DHT22;2593;52.466;13.436;2022-09-09T14:55:36;22.90;1.00
5150;DHT22;2593;52.466;13.436;2022-09-09T14:58:02;22.80;1.00
5150;DHT22;2593;52.466;13.436;2022-09-09T15:00:27;22.70;1.00
5150;DHT22;2593;52.466;13.436;2022-09-09T15:02:53;22.60;1.00
5150;DHT22;2593;52.466;13.436;2022-09-09T15:05:20;22.60;1.00
5150;DHT22;2593;52.466;13.436;2022-09-09T15:07:45;22.50;1.00
5150;DHT22;2593;52.466;13.436;2022-09-09T15:10:11;22.50;1.00
5150;DHT22;2593;52.466;13.436;2022-09-09T15:12:37;22.40;1.00
5150;DHT22;2593;52.466;13.436;2022-09-09T15:15:04;22.40;1.00
5150;DHT22;2593;52.466;13.436;2022-09-09T15:17:30;22.30;1.00
5150;DHT22;2593;52.466;13.436;2022-09-09T15:19:55;22.30;1.00
5150;DHT22;2593;52.466;13.436;2022-09-09T15:22:21;22.40;1.00
5150;DHT22;2593;52.466;13.436;2022-09-09T15:24:47;22.30;1.00
5150;DHT22;2593;52.466;13.436;2022-09-09T15:27:12;22.40;1.00
5150;DHT22;2593;52.466;13.436;2022-09-09T15:29:40;22.40;1.00
5150;DHT22;2593;52.466;13.436;2022-09-09T15:32:07;22.40;1.00
5150;DHT22;2593;52.466;13.436;2022-09-09T15:34:32;22.40;1.00
5150;DHT22;2593;52.466;13.436;2022-09-09T15:36:59;22.50;1.00
5150;DHT22;2593;52.466;13.436;2022-09-09T15:39:25;22.50;1.00
5150;DHT22;2593;52.466;13.436;2022-09-09T15:41:51;22.50;1.00
5150;DHT22;2593;52.466;13.436;2022-09-09T15:44:17;22.50;1.00
5150;DHT22;2593;52.466;13.436;2022-09-09T15:46:46;22.40;1.00
5150;DHT22;2593;52.466;13.436;2022-09-09T15:49:19;22.30;1.00
5150;DHT22;2593;52.466;13.436;2022-09-09T15:51:47;22.30;1.00
5150;DHT22;2593;52.466;13.436;2022-09-09T15:54:19;22.20;1.00
5150;DHT22;2593;52.466;13.436;2022-09-09T15:56:54;22.20;1.00
5150;DHT22;2593;52.466;13.436;2022-09-09T15:59:21;22.20;1.00
5150;DHT22;2593;52.466;13.436;2022-09-09T16:01:47;22.20;1.00
5150;DHT22;2593;52.466;13.436;2022-09-09T16:04:14;22.20;1.00
5150;DHT22;2593;52.466;13.436;2022-09-09T16:06:45;22.30;1.00
5150;DHT22;2593;52.466;13.436;2022-09-09T16:09:11;22.30;1.00
5150;DHT22;2593;52.466;13.436;2022-09-09T16:11:38;22.20;1.00
5150;DHT22;2593;52.466;13.436;2022-09-09T16:14:04;22.20;1.00
5150;DHT22;2593;52.466;13.436;2022-09-09T16:16:31;22.20;1.00
5150;DHT22;2593;52.466;13.436;2022-09-09T16:19:05;22.20;1.00
5150;DHT22;2593;52.466;13.436;2022-09-09T16:21:34;22.20;1.00
5150;DHT22;2593;52.466;13.436;2022-09-09T16:24:02;22.20;1.00
5150;DHT22;2593;52.466;13.436;2022-09-09T16:26:29;22.20;1.00
5150;DHT22;2593;52.466;13.436;2022-09-09T16:28:55;22.20;1.00
5150;DHT22;2593;52.466;13.436;2022-09-09T16:31:24;22.20;1.00
5150;DHT22;2593;52.466;13.436;2022-09-09T16:33:50;22.10;1.00
5150;DHT22;2593;52.466;13.436;2022-09-09T16:36:19;22.00;1.00
5150;DHT22;2593;52.466;13.436;2022-09-09T16:38:46;22.00;1.00
5150;DHT22;2593;52.466;13.436;2022-09-09T16:41:13;21.90;1.00
5150;DHT22;2593;52.466;13.436;2022-09-09T16:43:39;21.90;1.00
5150;DHT22;2593;52.466;13.436;2022-09-09T16:46:18;21.80;1.00
5150;DHT22;2593;52.466;13.436;2022-09-09T16:48:45;21.80;1.00
5150;DHT22;2593;52.466;13.436;2022-09-09T16:51:22;21.70;1.00
5150;DHT22;2593;52.466;13.436;2022-09-09T16:53:49;21.60;1.00
5150;DHT22;2593;52.466;13.436;2022-09-09T16:56:17;21.60;1.00
5150;DHT22;2593;52.466;13.436;2022-09-09T16:58:49;21.60;1.00
5150;DHT22;2593;52.466;13.436;2022-09-09T17:01:16;21.50;1.00
5150;DHT22;2593;52.466;13.436;2022-09-09T17:03:42;21.30;1.00
5150;DHT22;2593;52.466;13.436;2022-09-09T17:06:12;21.20;1.00
5150;DHT22;2593;52.466;13.436;2022-09-09T17:08:39;21.00;21.10
5150;DHT22;2593;52.466;13.436;2022-09-09T17:11:25;20.90;41.20
5150;DHT22;2593;52.466;13.436;2022-09-09T17:13:52;20.80;50.70
5150;DHT22;2593;52.466;13.436;2022-09-09T17:16:20;20.80;49.00
5150;DHT22;2593;52.466;13.436;2022-09-09T17:18:48;20.70;61.20
5150;DHT22;2593;52.466;13.436;2022-09-09T17:21:15;20.50;6.60
5150;DHT22;2593;52.466;13.436;2022-09-09T17:23:42;20.30;1.00
5150;DHT22;2593;52.466;13.436;2022-09-09T17:26:11;20.20;1.00
5150;DHT22;2593;52.466;13.436;2022-09-09T17:28:38;20.10;1.00
5150;DHT22;2593;52.466;13.436;2022-09-09T17:31:06;20.10;1.00
5150;DHT22;2593;52.466;13.436;2022-09-09T17:33:37;19.90;1.00
5150;DHT22;2593;52.466;13.436;2022-09-09T17:36:12;19.90;1.00
5150;DHT22;2593;52.466;13.436;2022-09-09T17:38:38;19.80;1.00
5150;DHT22;2593;52.466;13.436;2022-09-09T17:41:06;19.80;1.00
5150;DHT22;2593;52.466;13.436;2022-09-09T17:43:32;19.70;1.00
5150;DHT22;2593;52.466;13.436;2022-09-09T17:48:36;19.50;1.00
5150;DHT22;2593;52.466;13.436;2022-09-09T17:51:04;19.50;1.00
5150;DHT22;2593;52.466;13.436;2022-09-09T17:53:31;19.40;1.00
5150;DHT22;2593;52.466;13.436;2022-09-09T17:56:06;19.30;1.00
5150;DHT22;2593;52.466;13.436;2022-09-09T17:58:32;19.20;1.00
5150;DHT22;2593;52.466;13.436;2022-09-09T18:01:09;19.20;1.00
5150;DHT22;2593;52.466;13.436;2022-09-09T18:03:37;19.20;1.00
5150;DHT22;2593;52.466;13.436;2022-09-09T18:06:06;19.10;1.00
5150;DHT22;2593;52.466;13.436;2022-09-09T18:08:33;18.90;1.00
5150;DHT22;2593;52.466;13.436;2022-09-09T18:11:00;19.00;1.00
5150;DHT22;2593;52.466;13.436;2022-09-09T18:13:26;19.00;15.40
5150;DHT22;2593;52.466;13.436;2022-09-09T18:15:51;18.90;29.70
5150;DHT22;2593;52.466;13.436;2022-09-09T18:18:17;18.80;60.30
5150;DHT22;2593;52.466;13.436;2022-09-09T18:20:43;18.80;93.50
5150;DHT22;2593;52.466;13.436;2022-09-09T18:23:09;18.70;99.90
5150;DHT22;2593;52.466;13.436;2022-09-09T18:25:41;18.60;99.90
5150;DHT22;2593;52.466;13.436;2022-09-09T18:28:07;18.50;99.90
5150;DHT22;2593;52.466;13.436;2022-09-09T18:30:33;18.50;99.90
5150;DHT22;2593;52.466;13.436;2022-09-09T18:32:59;18.40;99.90
5150;DHT22;2593;52.466;13.436;2022-09-09T18:35:24;18.40;99.90
5150;DHT22;2593;52.466;13.436;2022-09-09T18:37:50;18.30;99.90
5150;DHT22;2593;52.466;13.436;2022-09-09T18:40:16;18.10;99.90
5150;DHT22;2593;52.466;13.436;2022-09-09T18:42:42;18.10;1.00